Time;durP1;ratioP1;P1;durP2;ratioP2;P2;SDS_P1;SDS_P2;PMS_P1;PMS_P2;Temp;Humidity;BMP_temperature;BMP_pressure;BME280_temperature;BME280_humidity;BME280_pressure;Samples;Min_cycle;Max_cycle;Signal;HPM_P1;HPM_P2
2024/01/03 00:03:38;;;;;;;8.35;1.15;;;;;;;9.65;79.56;97435.88;10403470;28;20038;-82
2024/01/03 00:08:48;;;;;;;5.93;1.15;;;;;;;9.41;79.17;97447.75;10367786;28;20136;-82
2024/01/03 00:14:25;;;;;;;8.00;1.08;;;;;;;9.48;77.67;97458.53;10395886;28;20043;-81
2024/01/03 00:19:39;;;;;;;13.18;1.70;;;;;;;9.71;76.99;97445.81;10380337;28;20057;-82
2024/01/03 00:24:53;;;;;;;3.95;0.90;;;;;;;9.44;79.09;97474.16;10392837;28;20045;-83
2024/01/03 00:30:08;;;;;;;5.32;1.27;;;;;;;9.08;84.46;97465.25;10355304;28;20056;-82
2024/01/03 00:35:24;;;;;;;6.05;1.05;;;;;;;8.97;87.46;97470.06;10389530;28;20095;-80
2024/01/03 00:40:57;;;;;;;10.23;1.75;;;;;;;8.84;90.59;97461.84;10366488;28;20042;-81
2024/01/03 00:46:09;;;;;;;6.97;1.75;;;;;;;9.02;90.19;97501.63;10371051;28;20123;-83
2024/01/03 00:51:21;;;;;;;10.57;2.08;;;;;;;8.61;91.14;97491.34;10390096;28;20041;-81
2024/01/03 00:56:30;;;;;;;10.57;1.50;;;;;;;8.59;94.56;97539.69;10404716;28;20131;-81
2024/01/03 01:01:42;;;;;;;9.40;1.23;;;;;;;7.88;100.00;97498.94;10435788;28;20060;-80
2024/01/03 01:06:51;;;;;;;12.98;1.30;;;;;;;8.07;100.00;97478.09;10445795;27;20091;-79
2024/01/03 01:11:59;;;;;;;9.43;2.30;;;;;;;8.37;100.00;97469.16;10414684;27;20059;-80
2024/01/03 01:17:07;;;;;;;7.35;1.58;;;;;;;8.60;95.42;97473.63;10375987;28;20065;-81
2024/01/03 01:22:20;;;;;;;7.10;2.75;;;;;;;9.18;89.63;97487.22;10386753;28;20179;-81
2024/01/03 01:27:30;;;;;;;9.95;1.83;;;;;;;8.79;87.76;97464.25;10383841;28;20050;-80
2024/01/03 01:32:41;;;;;;;10.07;1.20;;;;;;;9.07;84.19;97483.16;10398622;28;20046;-81
2024/01/03 01:37:49;;;;;;;13.00;2.72;;;;;;;9.10;81.95;97481.97;10393738;28;20063;-81
2024/01/03 01:43:02;;;;;;;9.48;1.65;;;;;;;9.09;81.49;97509.75;10379089;28;20139;-80
2024/01/03 01:48:18;;;;;;;6.75;1.92;;;;;;;8.92;80.70;97490.38;10411410;28;20057;-80
2024/01/03 01:53:30;;;;;;;6.72;1.38;;;;;;;8.98;80.61;97495.00;10381318;28;20118;-79
2024/01/03 01:58:41;;;;;;;8.75;1.38;;;;;;;8.91;80.74;97424.47;10369029;28;20045;-79
2024/01/03 02:03:58;;;;;;;5.88;1.40;;;;;;;8.99;80.11;97531.44;10401877;28;20069;-81
2024/01/03 02:09:10;;;;;;;7.47;1.85;;;;;;;8.84;82.32;97508.19;10383490;28;20049;-81
2024/01/03 02:14:23;;;;;;;8.45;1.80;;;;;;;8.95;83.02;97490.84;10385427;28;20056;-80
2024/01/03 02:19:35;;;;;;;11.13;1.98;;;;;;;8.76;83.91;97518.13;10376659;28;20077;-79
2024/01/03 02:24:48;;;;;;;11.83;1.43;;;;;;;8.69;84.46;97523.38;10397063;27;20045;-81
2024/01/03 02:29:56;;;;;;;5.20;1.33;;;;;;;8.88;84.02;97516.66;10363849;28;20364;-79
2024/01/03 02:35:07;;;;;;;6.75;1.52;;;;;;;8.61;85.15;97547.53;10367852;28;20057;-79
2024/01/03 02:40:16;;;;;;;4.25;1.08;;;;;;;8.68;85.11;97520.88;10378619;28;20120;-79
2024/01/03 02:45:26;;;;;;;9.27;1.77;;;;;;;8.53;84.39;97556.47;10350649;28;20049;-81
2024/01/03 02:50:44;;;;;;;;;;;;;;;8.51;81.99;97522.88;10379887;28;20080;-81
2024/01/03 02:55:57;;;;;;;11.30;2.65;;;;;;;9.07;79.80;97539.38;10386708;28;19925;-81
2024/01/03 03:01:06;;;;;;;6.63;1.50;;;;;;;8.68;82.29;97550.31;10370357;28;20077;-80
2024/01/03 03:06:19;;;;;;;6.28;1.48;;;;;;;8.76;81.07;97539.53;10360271;28;20049;-81
2024/01/03 03:11:29;;;;;;;5.35;1.33;;;;;;;8.90;81.59;97548.63;10366768;28;20099;-78
2024/01/03 03:16:38;;;;;;;16.02;1.95;;;;;;;8.71;82.62;97548.09;10361023;28;20049;-79
2024/01/03 03:21:53;;;;;;;10.27;1.88;;;;;;;8.65;83.59;97562.22;10385375;28;20204;-81
2024/01/03 03:27:11;;;;;;;7.60;1.80;;;;;;;8.46;83.87;97558.19;10354322;28;20442;-80
2024/01/03 03:32:19;;;;;;;12.57;2.47;;;;;;;8.93;83.41;97583.88;10354014;28;20048;-80
2024/01/03 03:37:30;;;;;;;9.65;2.22;;;;;;;8.79;86.84;97539.19;10369181;28;20045;-81
2024/01/03 03:42:40;;;;;;;8.80;2.05;;;;;;;8.79;89.70;97601.56;10346894;28;20077;-81
2024/01/03 03:47:48;;;;;;;8.32;1.65;;;;;;;8.24;93.12;97601.78;10353917;28;20053;-79
2024/01/03 03:53:00;;;;;;;13.13;1.80;;;;;;;8.25;93.71;97571.34;10366550;28;20057;-80
2024/01/03 03:58:14;;;;;;;9.02;1.85;;;;;;;8.33;93.69;97565.94;10381424;28;20520;-79
2024/01/03 04:03:21;;;;;;;14.98;1.95;;;;;;;8.11;95.07;97600.50;10354648;28;20049;-80
2024/01/03 04:08:31;;;;;;;15.38;2.78;;;;;;;8.33;95.74;97580.16;10373396;28;20056;-79
2024/01/03 04:13:40;;;;;;;12.20;2.25;;;;;;;8.27;98.94;97591.56;10358034;28;20046;-79
2024/01/03 04:18:51;;;;;;;16.58;2.92;;;;;;;7.49;100.00;97579.97;10355500;28;20175;-79
2024/01/03 04:24:10;;;;;;;11.43;1.98;;;;;;;7.43;100.00;97566.44;10355600;28;20061;-80
2024/01/03 04:29:21;;;;;;;7.57;2.30;;;;;;;7.81;100.00;97612.88;10395704;28;20060;-82
2024/01/03 04:34:33;;;;;;;6.90;2.42;;;;;;;7.70;100.00;97619.44;10404363;28;20048;-80
2024/01/03 04:39:49;;;;;;;5.27;1.07;;;;;;;8.04;100.00;97647.69;10402673;27;20049;-81
2024/01/03 04:44:59;;;;;;;5.85;1.20;;;;;;;8.14;99.41;97626.91;10333615;28;20050;-80
2024/01/03 04:50:08;;;;;;;11.38;2.03;;;;;;;7.62;100.00;97659.53;10354051;28;20046;-82
2024/01/03 04:55:19;;;;;;;5.45;1.50;;;;;;;8.00;100.00;97637.50;10375396;28;20038;-81
2024/01/03 05:00:30;;;;;;;6.53;1.67;;;;;;;7.93;100.00;97653.44;10355665;28;20094;-80
2024/01/03 05:05:42;;;;;;;8.50;2.67;;;;;;;7.59;100.00;97651.84;10339623;28;20057;-81
2024/01/03 05:10:56;;;;;;;13.60;2.45;;;;;;;7.90;100.00;97651.09;10364251;28;20052;-80
2024/01/03 05:16:11;;;;;;;7.97;2.05;;;;;;;7.56;100.00;97654.06;10331786;28;20052;-81
2024/01/03 05:21:22;;;;;;;9.98;2.00;;;;;;;7.86;100.00;97671.16;10342647;28;20053;-82
2024/01/03 05:26:32;;;;;;;4.05;0.98;;;;;;;7.97;100.00;97641.38;10384378;28;20049;-81
2024/01/03 05:31:46;;;;;;;8.57;1.73;;;;;;;7.98;98.89;97661.75;10402674;28;20053;-80
2024/01/03 05:37:01;;;;;;;9.57;2.42;;;;;;;8.07;97.68;97662.56;10357575;28;20049;-82
2024/01/03 05:42:10;;;;;;;5.90;1.58;;;;;;;8.20;96.10;97667.31;10345500;28;20145;-81
2024/01/03 05:47:22;;;;;;;8.68;1.67;;;;;;;8.23;94.42;97661.59;10413283;28;20064;-81
2024/01/03 05:52:35;;;;;;;12.77;2.53;;;;;;;8.28;93.10;97653.91;10405206;28;20057;-81
2024/01/03 05:57:45;;;;;;;5.28;2.83;;;;;;;8.30;93.41;97692.00;10395839;28;20049;-81
2024/01/03 06:02:55;;;;;;;8.35;1.85;;;;;;;8.23;93.59;97670.50;10372830;28;20048;-81
2024/01/03 06:08:09;;;;;;;3.70;1.10;;;;;;;8.07;93.84;97658.03;10393020;28;20176;-81
2024/01/03 06:13:20;;;;;;;6.88;1.75;;;;;;;7.98;95.30;97674.28;10401836;28;20133;-81
2024/01/03 06:18:33;;;;;;;10.38;1.50;;;;;;;8.22;95.54;97700.06;10392423;28;20041;-81
2024/01/03 06:23:47;;;;;;;5.80;0.98;;;;;;;8.06;97.32;97709.81;10400472;28;20067;-80
2024/01/03 06:28:56;;;;;;;7.38;1.15;;;;;;;8.00;98.33;97715.84;10407399;28;20044;-80
2024/01/03 06:34:05;;;;;;;6.90;2.10;;;;;;;7.93;99.18;97750.47;10414278;28;20413;-80
2024/01/03 06:39:14;;;;;;;9.38;2.13;;;;;;;7.93;97.82;97707.72;10416839;28;20049;-79
2024/01/03 06:44:24;;;;;;;8.43;2.03;;;;;;;8.19;96.81;97725.31;10389951;28;20053;-80
2024/01/03 06:49:34;;;;;;;5.97;2.08;;;;;;;7.93;97.55;97733.59;10373976;28;20044;-81
2024/01/03 06:54:45;;;;;;;6.95;0.98;;;;;;;8.10;96.56;97761.94;10376224;28;20060;-80
2024/01/03 06:59:55;;;;;;;12.02;1.63;;;;;;;8.01;97.93;97735.41;10405039;28;20048;-79
2024/01/03 07:05:09;;;;;;;8.07;1.70;;;;;;;8.07;95.66;97724.88;10367582;28;20049;-81
2024/01/03 07:10:19;;;;;;;7.65;1.13;;;;;;;8.30;94.35;97750.84;10374427;28;20042;-80
2024/01/03 07:15:33;;;;;;;5.72;1.02;;;;;;;8.31;91.61;97741.78;10349166;28;20053;-81
2024/01/03 07:20:45;;;;;;;8.60;1.33;;;;;;;8.56;90.23;97726.50;10337503;28;20045;-79
2024/01/03 07:25:56;;;;;;;6.45;0.85;;;;;;;8.36;90.21;97748.31;10344631;28;20061;-79
2024/01/03 07:31:05;;;;;;;4.15;1.25;;;;;;;8.50;88.57;97765.50;10345706;28;20057;-78
2024/01/03 07:36:17;;;;;;;3.90;1.50;;;;;;;8.42;88.81;97757.47;10347239;28;20049;-81
2024/01/03 07:41:26;;;;;;;5.32;0.73;;;;;;;8.29;90.70;97758.03;10336357;28;20050;-79
2024/01/03 07:46:36;;;;;;;5.95;0.98;;;;;;;8.34;90.59;97752.16;10353423;28;20042;-80
2024/01/03 07:51:49;;;;;;;5.32;1.00;;;;;;;8.51;89.26;97745.75;10334891;28;20064;-81
2024/01/03 07:57:01;;;;;;;1.98;0.80;;;;;;;8.33;90.64;97758.50;10339730;28;20050;-79
2024/01/03 08:02:10;;;;;;;6.78;0.95;;;;;;;8.35;90.57;97775.22;10345601;28;20038;-81
2024/01/03 08:07:21;;;;;;;5.47;0.80;;;;;;;8.43;89.79;97759.13;10341660;28;20120;-80
2024/01/03 08:12:33;;;;;;;4.75;0.90;;;;;;;8.30;90.86;97753.50;10347408;28;20124;-79
2024/01/03 08:17:46;;;;;;;3.58;1.13;;;;;;;8.16;91.08;97763.09;10346949;28;20049;-80
2024/01/03 08:23:02;;;;;;;5.45;0.82;;;;;;;8.42;89.02;97773.53;10362401;28;20085;-80
2024/01/03 08:28:14;;;;;;;2.42;0.70;;;;;;;8.24;91.31;97778.28;10341651;28;20069;-83
2024/01/03 08:33:27;;;;;;;2.88;0.75;;;;;;;8.60;88.37;97779.47;10367390;28;20481;-82
2024/01/03 08:38:36;;;;;;;2.85;0.73;;;;;;;8.38;89.35;97748.94;10383055;28;20049;-82
2024/01/03 08:43:42;;;;;;;2.13;0.82;;;;;;;8.35;91.70;97732.44;10374812;28;20046;-82
2024/01/03 08:48:47;;;;;;;2.88;0.50;;;;;;;8.00;96.36;97772.00;10350809;28;20060;-81
2024/01/03 08:53:55;;;;;;;6.30;0.52;;;;;;;7.71;99.76;97773.41;10371022;28;20196;-81
2024/01/03 08:59:11;;;;;;;0.68;0.38;;;;;;;7.71;100.00;97764.56;10374000;28;20099;-81
2024/01/03 09:04:19;;;;;;;0.98;0.80;;;;;;;7.43;100.00;97772.09;10408154;28;20045;-81
2024/01/03 09:09:26;;;;;;;2.83;0.45;;;;;;;7.13;100.00;97774.44;10360791;28;20048;-80
2024/01/03 09:14:32;;;;;;;5.18;0.80;;;;;;;6.98;100.00;97803.59;10342404;28;20448;-82
2024/01/03 09:19:41;;;;;;;5.28;0.80;;;;;;;6.97;100.00;97814.47;10358269;28;20045;-83
2024/01/03 09:24:48;;;;;;;7.13;1.33;;;;;;;7.14;100.00;97792.13;10343539;28;20471;-84
2024/01/03 09:29:56;;;;;;;3.25;0.77;;;;;;;6.50;100.00;97796.25;10368682;28;20053;-85
2024/01/03 09:35:01;;;;;;;6.43;1.08;;;;;;;6.75;100.00;97799.88;10347772;28;20057;-83
2024/01/03 09:40:09;;;;;;;4.47;1.10;;;;;;;6.70;100.00;97800.34;10348956;28;20038;-82
2024/01/03 09:45:12;;;;;;;3.70;0.80;;;;;;;6.39;100.00;97803.56;10359908;28;20402;-82
2024/01/03 09:50:16;;;;;;;2.30;0.52;;;;;;;6.54;100.00;97816.28;10340415;28;20045;-82
2024/01/03 09:55:21;;;;;;;3.97;0.60;;;;;;;6.45;100.00;97825.28;10324667;28;21768;-82
2024/01/03 10:00:29;;;;;;;2.42;0.80;;;;;;;6.50;100.00;97837.13;10375895;28;20054;-83
2024/01/03 10:05:33;;;;;;;4.07;1.00;;;;;;;6.69;100.00;97836.03;10352165;28;20058;-78
2024/01/03 10:10:38;;;;;;;9.23;0.90;;;;;;;6.60;100.00;97855.66;10355387;28;20056;-79
2024/01/03 10:15:43;;;;;;;1.48;0.40;;;;;;;6.65;100.00;97857.84;10359591;28;20053;-78
2024/01/03 10:20:46;;;;;;;4.15;0.65;;;;;;;6.74;100.00;97868.38;10342808;28;20050;-82
2024/01/03 10:25:56;;;;;;;4.93;0.93;;;;;;;6.68;100.00;97873.53;10356626;28;20046;-78
2024/01/03 10:30:59;;;;;;;1.17;0.65;;;;;;;6.79;100.00;97876.72;10353200;28;20046;-80
2024/01/03 10:36:09;;;;;;;2.78;1.20;;;;;;;6.54;100.00;97877.63;10360688;28;20041;-78
2024/01/03 10:41:15;;;;;;;5.07;2.00;;;;;;;6.52;100.00;97876.94;10360879;28;20092;-80
2024/01/03 10:46:19;;;;;;;2.92;1.73;;;;;;;6.58;100.00;97886.97;10412150;28;20884;-79
2024/01/03 10:51:24;;;;;;;5.13;1.33;;;;;;;6.58;100.00;97894.97;10448143;28;20095;-78
2024/01/03 10:56:32;;;;;;;3.88;1.38;;;;;;;6.50;100.00;97894.94;10461379;28;20570;-79
2024/01/03 11:01:45;;;;;;;2.67;1.23;;;;;;;6.45;100.00;97862.59;10466694;28;20418;-79
2024/01/03 11:06:53;;;;;;;;;;;;;;;6.49;100.00;97893.28;10483802;28;20060;-81
2024/01/03 11:12:08;;;;;;;6.90;1.55;;;;;;;6.57;100.00;97894.16;10479499;28;19927;-79
2024/01/03 11:17:12;;;;;;;4.65;1.95;;;;;;;6.71;100.00;97890.03;10474269;28;20123;-80
2024/01/03 11:22:15;;;;;;;5.60;2.03;;;;;;;6.61;100.00;97874.19;10485329;28;20044;-79
2024/01/03 11:27:23;;;;;;;8.35;1.77;;;;;;;6.67;100.00;97883.38;10485313;28;20048;-79
2024/01/03 11:32:36;;;;;;;2.78;2.03;;;;;;;6.80;100.00;97882.91;10477579;28;20051;-79
2024/01/03 11:37:42;;;;;;;7.43;2.60;;;;;;;6.93;100.00;97883.31;10464419;28;20168;-79
2024/01/03 11:42:47;;;;;;;6.32;2.40;;;;;;;6.62;100.00;97883.84;10491864;28;20079;-80
2024/01/03 11:47:51;;;;;;;8.73;4.38;;;;;;;6.49;100.00;97869.28;10475961;28;20127;-78
2024/01/03 11:52:55;;;;;;;6.75;3.67;;;;;;;6.56;100.00;97881.81;10480826;28;20052;-79
2024/01/03 11:58:04;;;;;;;12.05;4.28;;;;;;;6.52;100.00;97851.13;10485235;28;20044;-81
2024/01/03 12:03:08;;;;;;;9.55;4.20;;;;;;;6.53;100.00;97863.47;10472434;28;20048;-83
2024/01/03 12:08:14;;;;;;;14.48;3.30;;;;;;;6.39;100.00;97866.75;10480476;28;20156;-86
2024/01/03 12:13:18;;;;;;;13.15;4.00;;;;;;;6.48;100.00;97849.78;10504071;28;20092;-85
2024/01/03 12:18:22;;;;;;;10.32;4.40;;;;;;;6.57;100.00;97864.81;10485017;28;20107;-84
2024/01/03 12:23:28;;;;;;;14.60;3.53;;;;;;;6.54;100.00;97867.78;10443232;28;21173;-85
2024/01/03 12:28:32;;;;;;;14.57;3.63;;;;;;;6.62;100.00;97861.66;10453862;28;20179;-84
2024/01/03 12:33:35;;;;;;;9.35;3.35;;;;;;;6.61;100.00;97852.00;10447472;28;20078;-84
2024/01/03 12:38:40;;;;;;;16.63;4.97;;;;;;;7.03;100.00;97846.66;10446744;28;20048;-79
2024/01/03 12:43:44;;;;;;;16.52;3.38;;;;;;;6.67;100.00;97843.34;10462700;28;20044;-83
2024/01/03 12:48:47;;;;;;;12.05;2.92;;;;;;;7.22;100.00;97842.03;10454612;28;20052;-83
2024/01/03 12:53:50;;;;;;;14.75;2.92;;;;;;;6.64;100.00;97854.34;10456997;28;20044;-83
2024/01/03 12:58:56;;;;;;;10.13;2.63;;;;;;;6.93;100.00;97850.47;10449657;28;20040;-82
2024/01/03 13:03:59;;;;;;;11.10;2.92;;;;;;;6.89;100.00;97846.47;10438316;28;20046;-83
2024/01/03 13:09:04;;;;;;;14.82;3.08;;;;;;;6.82;100.00;97846.22;10442663;28;20052;-83
2024/01/03 13:14:10;;;;;;;6.10;2.42;;;;;;;6.86;100.00;97826.25;10452228;28;20040;-83
2024/01/03 13:19:13;;;;;;;7.80;2.28;;;;;;;7.14;100.00;97834.00;10464033;28;20628;-82
2024/01/03 13:24:16;;;;;;;11.57;2.00;;;;;;;7.06;100.00;97829.47;10479246;28;20044;-81
2024/01/03 13:29:21;;;;;;;10.98;2.67;;;;;;;7.39;100.00;97841.03;10461988;28;20067;-83
2024/01/03 13:34:24;;;;;;;8.40;1.92;;;;;;;7.54;100.00;97835.00;10492345;28;20063;-84
2024/01/03 13:39:27;;;;;;;11.25;1.92;;;;;;;7.43;100.00;97829.03;10466329;28;20052;-82
2024/01/03 13:44:32;;;;;;;13.35;1.90;;;;;;;7.55;100.00;97842.03;10446820;28;20051;-80
2024/01/03 13:49:35;;;;;;;13.27;2.35;;;;;;;7.76;100.00;97830.84;10466975;28;20131;-81
2024/01/03 13:54:38;;;;;;;9.10;2.28;;;;;;;7.71;100.00;97839.38;10486028;28;20040;-80
2024/01/03 13:59:43;;;;;;;13.25;3.20;;;;;;;7.28;100.00;97857.38;10484930;28;20063;-81
2024/01/03 14:04:46;;;;;;;17.55;3.45;;;;;;;7.25;100.00;97849.69;10463830;28;20136;-83
2024/01/03 14:09:49;;;;;;;14.88;4.32;;;;;;;7.00;100.00;97846.97;10455961;28;20041;-82
2024/01/03 14:14:53;;;;;;;12.48;2.60;;;;;;;7.16;100.00;97850.66;10456707;28;20071;-81
2024/01/03 14:19:56;;;;;;;6.03;2.33;;;;;;;7.02;100.00;97847.66;10464003;28;20047;-81
2024/01/03 14:24:59;;;;;;;12.63;2.85;;;;;;;7.20;100.00;97855.53;10479963;28;20067;-82
2024/01/03 14:30:05;;;;;;;14.40;2.58;;;;;;;7.07;100.00;97841.81;10457410;28;20225;-82
2024/01/03 14:35:08;;;;;;;13.23;2.38;;;;;;;7.19;100.00;97856.53;10452413;28;20051;-82
2024/01/03 14:40:15;;;;;;;9.10;2.17;;;;;;;7.27;100.00;97859.22;10453243;28;20044;-83
2024/01/03 14:45:19;;;;;;;10.55;1.63;;;;;;;7.15;100.00;97835.66;10453249;28;21231;-80
2024/01/03 14:50:24;;;;;;;7.75;2.00;;;;;;;7.35;100.00;97842.38;10460641;28;20055;-80
2024/01/03 14:55:27;;;;;;;9.13;1.73;;;;;;;7.68;100.00;97837.88;10455752;28;20071;-81
2024/01/03 15:00:31;;;;;;;11.05;2.28;;;;;;;7.58;100.00;97847.06;10453380;28;20052;-80
2024/01/03 15:05:37;;;;;;;6.63;1.77;;;;;;;7.25;100.00;97845.19;10452751;28;20282;-81
2024/01/03 15:10:40;;;;;;;8.43;2.00;;;;;;;7.27;100.00;97842.38;10453261;28;20098;-82
2024/01/03 15:15:47;;;;;;;6.40;1.60;;;;;;;7.38;100.00;97849.22;10448795;28;20044;-82
2024/01/03 15:20:50;;;;;;;5.82;1.30;;;;;;;7.34;100.00;97861.22;10449431;28;20060;-81
2024/01/03 15:25:53;;;;;;;13.70;1.33;;;;;;;7.56;100.00;97859.72;10457593;28;20045;-81
2024/01/03 15:30:58;;;;;;;11.02;1.90;;;;;;;7.48;100.00;97850.69;10453956;28;20044;-81
2024/01/03 15:36:01;;;;;;;7.53;1.45;;;;;;;7.30;100.00;97857.22;10453916;28;20051;-81
2024/01/03 15:41:08;;;;;;;6.47;1.08;;;;;;;7.40;100.00;97861.38;10468239;28;20041;-81
2024/01/03 15:46:15;;;;;;;8.35;1.38;;;;;;;7.59;100.00;97852.22;10457191;28;20048;-81
2024/01/03 15:51:21;;;;;;;13.20;1.52;;;;;;;7.44;100.00;97864.56;10439183;28;20048;-81
2024/01/03 15:56:25;;;;;;;7.63;2.00;;;;;;;7.47;100.00;97846.38;10463368;28;20530;-81
2024/01/03 16:01:29;;;;;;;6.93;1.48;;;;;;;7.41;100.00;97843.53;10480793;28;20075;-81
2024/01/03 16:06:32;;;;;;;6.80;1.42;;;;;;;7.28;100.00;97844.84;10477825;28;21384;-82
2024/01/03 16:11:35;;;;;;;6.10;1.83;;;;;;;7.48;100.00;97850.69;10475875;28;20044;-83
2024/01/03 16:16:41;;;;;;;5.15;0.93;;;;;;;7.18;100.00;97857.50;10487733;28;20542;-81
2024/01/03 16:21:44;;;;;;;3.78;1.33;;;;;;;7.44;100.00;97845.88;10467843;28;20045;-84
2024/01/03 16:26:54;;;;;;;7.43;1.13;;;;;;;7.43;100.00;97847.72;10470648;28;20384;-81
2024/01/03 16:32:00;;;;;;;4.00;1.05;;;;;;;7.50;100.00;97838.03;10473663;28;20117;-84
2024/01/03 16:37:06;;;;;;;9.05;1.30;;;;;;;7.52;100.00;97842.38;10492323;28;20056;-80
2024/01/03 16:42:10;;;;;;;6.72;1.48;;;;;;;7.80;100.00;97830.34;10462361;28;21351;-84
2024/01/03 16:47:15;;;;;;;18.55;1.48;;;;;;;7.43;100.00;97833.50;10466444;28;20482;-84
2024/01/03 16:52:20;;;;;;;6.82;1.58;;;;;;;7.35;100.00;97846.84;10463158;28;20052;-82
2024/01/03 16:57:23;;;;;;;4.13;1.67;;;;;;;7.03;100.00;97840.47;10455295;28;20048;-84
2024/01/03 17:02:28;;;;;;;5.15;1.55;;;;;;;7.28;100.00;97847.53;10462839;28;20048;-82
2024/01/03 17:07:31;;;;;;;8.93;1.60;;;;;;;6.79;100.00;97850.03;10455672;28;20105;-79
2024/01/03 17:12:34;;;;;;;8.40;1.45;;;;;;;6.67;100.00;97837.19;10433759;28;20049;-83
2024/01/03 17:17:40;;;;;;;5.40;1.70;;;;;;;6.42;100.00;97844.22;10443980;28;20049;-83
2024/01/03 17:22:43;;;;;;;2.28;1.15;;;;;;;6.40;100.00;97834.56;10446575;28;20186;-83
2024/01/03 17:27:46;;;;;;;6.13;1.58;;;;;;;6.26;100.00;97829.84;10441307;28;20080;-84
2024/01/03 17:32:50;;;;;;;5.25;1.80;;;;;;;6.26;100.00;97839.69;10456356;28;20535;-85
2024/01/03 17:37:56;;;;;;;5.70;2.03;;;;;;;6.66;100.00;97820.31;10444023;28;20476;-85
2024/01/03 17:42:59;;;;;;;4.18;2.10;;;;;;;6.69;100.00;97817.34;10414619;28;20049;-82
2024/01/03 17:48:05;;;;;;;8.38;3.17;;;;;;;6.58;100.00;97818.50;10441611;28;20505;-85
2024/01/03 17:53:08;;;;;;;8.25;3.88;;;;;;;6.90;100.00;97821.44;10442326;28;20048;-84
2024/01/03 17:58:12;;;;;;;11.32;4.93;;;;;;;6.97;100.00;97819.78;10434146;28;20436;-84
2024/01/03 18:03:16;;;;;;;15.77;6.40;;;;;;;6.79;100.00;97820.69;10445916;28;20049;-82
2024/01/03 18:08:19;;;;;;;10.98;6.22;;;;;;;7.05;100.00;97817.97;10442799;28;20037;-83
2024/01/03 18:13:22;;;;;;;14.05;6.45;;;;;;;7.08;100.00;97834.66;10453912;28;20056;-83
2024/01/03 18:18:27;;;;;;;13.65;6.50;;;;;;;7.28;100.00;97858.19;10445481;28;20055;-84
2024/01/03 18:23:31;;;;;;;9.13;4.15;;;;;;;6.34;100.00;97835.22;10422433;28;21328;-85
2024/01/03 18:28:36;;;;;;;6.40;2.28;;;;;;;5.88;100.00;97834.63;10437222;28;20078;-85
2024/01/03 18:33:41;;;;;;;10.50;4.18;;;;;;;6.42;100.00;97820.22;10428725;28;20045;-84
2024/01/03 18:38:44;;;;;;;8.15;2.40;;;;;;;6.32;100.00;97823.88;10428429;28;20124;-83
2024/01/03 18:43:47;;;;;;;9.82;3.30;;;;;;;6.48;100.00;97838.28;10440159;28;20573;-83
2024/01/03 18:48:51;;;;;;;6.93;2.80;;;;;;;6.22;100.00;97831.13;10460879;28;20044;-84
2024/01/03 18:53:55;;;;;;;6.28;2.92;;;;;;;6.54;100.00;97841.13;10439441;28;20051;-83
2024/01/03 18:58:58;;;;;;;11.55;3.50;;;;;;;6.75;100.00;97843.38;10428152;28;21039;-83
2024/01/03 19:04:05;;;;;;;11.57;3.08;;;;;;;6.85;100.00;97838.72;10450067;28;20536;-83
2024/01/03 19:09:09;;;;;;;9.27;2.75;;;;;;;6.75;100.00;97845.22;10446127;28;20040;-83
2024/01/03 19:14:14;;;;;;;6.00;2.92;;;;;;;6.91;100.00;97839.09;10455341;28;20620;-81
2024/01/03 19:19:18;;;;;;;14.82;3.83;;;;;;;7.08;100.00;97848.00;10460816;28;20098;-82
2024/01/03 19:24:21;;;;;;;9.98;3.78;;;;;;;6.95;100.00;97840.47;10455124;28;20041;-82
2024/01/03 19:29:24;;;;;;;11.13;2.78;;;;;;;6.72;100.00;97850.84;10431008;28;20052;-83
2024/01/03 19:34:29;;;;;;;8.30;2.20;;;;;;;6.92;100.00;97844.28;10450301;28;20704;-81
2024/01/03 19:39:33;;;;;;;13.07;3.35;;;;;;;6.94;100.00;97849.44;10455645;28;20067;-81
2024/01/03 19:44:36;;;;;;;13.70;2.30;;;;;;;6.84;100.00;97847.72;10441738;28;20434;-83
2024/01/03 19:49:42;;;;;;;12.88;2.88;;;;;;;6.81;100.00;97852.56;10442279;28;20055;-82
2024/01/03 19:54:45;;;;;;;7.40;1.98;;;;;;;6.95;100.00;97857.31;10427620;28;21478;-83
2024/01/03 19:59:48;;;;;;;6.95;2.30;;;;;;;6.94;100.00;97862.78;10445758;28;20056;-82
2024/01/03 20:04:52;;;;;;;5.07;1.45;;;;;;;6.62;100.00;97865.16;10443341;28;20048;-82
2024/01/03 20:09:56;;;;;;;6.70;2.53;;;;;;;6.51;100.00;97870.78;10414368;28;20049;-84
2024/01/03 20:15:01;;;;;;;13.90;2.10;;;;;;;6.58;100.00;97868.31;10422261;28;20075;-82
2024/01/03 20:20:07;;;;;;;7.65;3.45;;;;;;;6.50;100.00;97885.13;10428679;28;20048;-83
2024/01/03 20:25:10;;;;;;;5.63;2.78;;;;;;;6.49;100.00;97875.44;10429409;28;20052;-81
2024/01/03 20:30:13;;;;;;;11.82;3.45;;;;;;;6.39;100.00;97880.91;10432468;28;20055;-83
2024/01/03 20:35:18;;;;;;;15.15;2.55;;;;;;;6.40;100.00;97889.72;10447084;28;20059;-81
2024/01/03 20:40:21;;;;;;;8.05;2.72;;;;;;;6.45;100.00;97889.25;10447956;28;20518;-82
2024/01/03 20:45:24;;;;;;;7.28;3.22;;;;;;;6.53;100.00;97894.66;10454217;28;20044;-80
2024/01/03 20:50:32;;;;;;;8.70;3.58;;;;;;;6.43;100.00;97889.41;10472838;28;20048;-82
2024/01/03 20:55:35;;;;;;;10.07;3.53;;;;;;;6.54;100.00;97906.97;10446333;28;21281;-80
2024/01/03 21:00:38;;;;;;;11.00;4.00;;;;;;;6.40;100.00;97914.56;10477542;28;20052;-82
2024/01/03 21:05:42;;;;;;;8.95;4.50;;;;;;;6.46;100.00;97913.09;10446646;28;20052;-82
2024/01/03 21:10:45;;;;;;;12.27;5.07;;;;;;;6.79;100.00;97897.25;10448106;28;20055;-82
2024/01/03 21:15:48;;;;;;;7.35;3.92;;;;;;;6.42;100.00;97906.41;10457277;28;20472;-81
2024/01/03 21:20:54;;;;;;;4.22;3.25;;;;;;;6.66;100.00;97911.00;10458128;28;20047;-82
2024/01/03 21:25:57;;;;;;;11.45;5.53;;;;;;;6.67;100.00;97899.38;10440005;28;20058;-83
2024/01/03 21:31:07;;;;;;;8.05;3.67;;;;;;;6.40;100.00;97906.56;10443526;28;20682;-82
2024/01/03 21:36:11;;;;;;;11.35;5.53;;;;;;;6.54;100.00;97907.81;10444492;28;20048;-82
2024/01/03 21:41:15;;;;;;;12.95;6.07;;;;;;;6.26;100.00;97904.47;10424984;28;20051;-81
2024/01/03 21:46:18;;;;;;;13.23;6.95;;;;;;;6.34;100.00;97895.69;10430039;28;20053;-80
2024/01/03 21:51:23;;;;;;;12.75;6.47;;;;;;;6.43;100.00;97904.59;10427785;28;20049;-82
2024/01/03 21:56:27;;;;;;;9.05;5.15;;;;;;;6.33;100.00;97910.00;10465210;28;20516;-81
2024/01/03 22:01:30;;;;;;;9.15;4.25;;;;;;;6.07;100.00;97897.53;10449929;28;20051;-81
2024/01/03 22:06:35;;;;;;;8.30;4.70;;;;;;;6.12;100.00;97919.22;10469212;28;20045;-82
2024/01/03 22:11:38;;;;;;;19.40;5.07;;;;;;;6.13;100.00;97901.41;10441956;28;20053;-84
2024/01/03 22:16:44;;;;;;;11.88;6.70;;;;;;;6.39;100.00;97912.91;10447840;28;20060;-81
2024/01/03 22:21:49;;;;;;;8.23;5.70;;;;;;;6.33;100.00;97929.50;10462688;28;20466;-83
2024/01/03 22:26:52;;;;;;;11.20;6.30;;;;;;;6.35;100.00;97935.53;10453938;28;20162;-82
2024/01/03 22:31:55;;;;;;;14.30;8.25;;;;;;;6.58;100.00;97926.97;10457788;28;20051;-83
2024/01/03 22:36:59;;;;;;;12.98;7.07;;;;;;;6.34;100.00;97941.84;10457012;28;20052;-82
2024/01/03 22:42:03;;;;;;;16.52;7.95;;;;;;;6.53;100.00;97948.81;10437022;28;20479;-82
2024/01/03 22:47:06;;;;;;;15.07;6.20;;;;;;;6.65;100.00;97940.53;10444540;28;20056;-80
2024/01/03 22:52:11;;;;;;;9.70;7.78;;;;;;;6.75;100.00;97946.59;10446823;28;20598;-83
2024/01/03 22:57:14;;;;;;;11.13;5.70;;;;;;;6.47;100.00;97948.59;10442729;28;20049;-81
2024/01/03 23:02:17;;;;;;;9.98;5.43;;;;;;;6.61;100.00;97958.69;10436419;28;20683;-83
2024/01/03 23:07:22;;;;;;;10.75;5.40;;;;;;;6.46;100.00;97962.94;10446831;28;20055;-82
2024/01/03 23:12:25;;;;;;;13.45;6.28;;;;;;;6.44;100.00;97962.25;10449311;28;21271;-82
2024/01/03 23:17:28;;;;;;;13.38;5.38;;;;;;;6.43;100.00;97961.41;10419735;28;20697;-82
2024/01/03 23:22:32;;;;;;;11.50;5.88;;;;;;;6.43;100.00;97969.41;10420486;28;20105;-81
2024/01/03 23:27:35;;;;;;;10.57;5.72;;;;;;;6.40;100.00;97975.06;10435990;28;20662;-82
2024/01/03 23:32:38;;;;;;;10.93;5.50;;;;;;;6.50;100.00;97958.94;10449313;28;21586;-81
2024/01/03 23:37:43;;;;;;;10.80;3.95;;;;;;;6.42;100.00;97961.56;10438154;28;20052;-80
2024/01/03 23:42:46;;;;;;;11.15;6.03;;;;;;;6.47;100.00;97967.25;10430278;28;20047;-82
2024/01/03 23:47:49;;;;;;;10.70;4.45;;;;;;;6.33;100.00;97966.81;10426765;28;20040;-81